Time;durP1;ratioP1;P1;durP2;ratioP2;P2;SDS_P1;SDS_P2;PMS_P1;PMS_P2;Temp;Humidity;BMP_temperature;BMP_pressure;BME280_temperature;BME280_humidity;BME280_pressure;Samples;Min_cycle;Max_cycle;Signal;HPM_P1;HPM_P2
2022/02/23 00:00:56;;;;;;;5.87;3.00;;;;;;;4.57;72.13;98825.52;1770582;80;21029;-63
2022/02/23 00:03:23;;;;;;;3.25;2.90;;;;;;;4.54;72.05;98828.92;1761887;80;21139;-64
2022/02/23 00:05:50;;;;;;;5.37;3.40;;;;;;;4.50;72.01;98835.48;1759197;80;20983;-65
2022/02/23 00:08:16;;;;;;;5.33;3.62;;;;;;;4.42;71.86;98832.27;1768523;80;22418;-63
2022/02/23 00:10:43;;;;;;;3.83;3.00;;;;;;;4.38;71.87;98831.40;1744055;81;20968;-64
2022/02/23 00:13:09;;;;;;;6.30;3.30;;;;;;;4.34;71.77;98833.48;1752359;80;20879;-64
2022/02/23 00:15:36;;;;;;;4.92;2.80;;;;;;;4.31;71.78;98835.92;1749774;80;21147;-64
2022/02/23 00:18:03;;;;;;;5.15;3.17;;;;;;;4.30;71.58;98840.03;1740040;82;20932;-63
2022/02/23 00:20:30;;;;;;;4.30;3.15;;;;;;;4.29;71.40;98845.78;1753705;81;20880;-63
2022/02/23 00:22:57;;;;;;;4.35;2.92;;;;;;;4.29;71.20;98849.73;1761604;81;21076;-63
2022/02/23 00:25:23;;;;;;;3.98;2.65;;;;;;;4.28;71.01;98845.43;1739286;82;20973;-64
2022/02/23 00:27:50;;;;;;;3.80;2.65;;;;;;;4.27;70.66;98847.73;1739144;82;21867;-64
2022/02/23 00:30:17;;;;;;;4.47;3.15;;;;;;;4.25;70.35;98848.83;1745886;81;20924;-64
2022/02/23 00:32:43;;;;;;;4.00;2.87;;;;;;;4.21;70.01;98851.42;1742857;82;20893;-62
2022/02/23 00:35:10;;;;;;;4.35;2.80;;;;;;;4.13;69.77;98847.37;1743648;82;20941;-63
2022/02/23 00:37:37;;;;;;;3.20;2.70;;;;;;;4.05;69.56;98855.16;1756182;80;20915;-63
2022/02/23 00:40:07;;;;;;;2.95;2.65;;;;;;;3.98;69.44;98858.03;1748954;80;20929;-63
2022/02/23 00:42:34;;;;;;;5.05;2.72;;;;;;;3.88;69.32;98859.87;1766351;80;20963;-64
2022/02/23 00:45:01;;;;;;;4.53;2.90;;;;;;;3.79;69.34;98867.28;1771415;80;20935;-63
2022/02/23 00:47:27;;;;;;;4.17;2.83;;;;;;;3.69;69.32;98873.41;1760020;80;20945;-63
2022/02/23 00:49:54;;;;;;;3.45;2.77;;;;;;;3.60;69.41;98879.98;1730227;82;20953;-64
2022/02/23 00:52:20;;;;;;;4.97;2.10;;;;;;;3.51;69.48;98877.73;1771755;80;21226;-64
2022/02/23 00:54:47;;;;;;;3.70;2.17;;;;;;;3.42;69.67;98878.56;1769983;80;20911;-63
2022/02/23 00:57:15;;;;;;;3.72;2.00;;;;;;;3.34;69.93;98882.37;1771697;80;20967;-63
2022/02/23 00:59:44;;;;;;;3.12;1.87;;;;;;;3.28;70.16;98881.63;1767767;80;20927;-64
2022/02/23 01:02:11;;;;;;;3.60;2.42;;;;;;;3.22;70.34;98879.55;1771496;80;21069;-64
2022/02/23 01:04:38;;;;;;;3.37;1.90;;;;;;;3.18;70.51;98874.20;1769836;80;21068;-63
2022/02/23 01:07:04;;;;;;;2.85;2.27;;;;;;;3.13;70.69;98882.98;1771417;80;21010;-63
2022/02/23 01:09:31;;;;;;;3.33;2.00;;;;;;;3.07;70.82;98881.77;1748686;80;21059;-64
2022/02/23 01:11:58;;;;;;;2.67;1.65;;;;;;;3.01;70.92;98884.09;1770476;80;21047;-64
2022/02/23 01:14:24;;;;;;;4.00;2.60;;;;;;;2.96;71.14;98885.00;1772114;80;20899;-64
2022/02/23 01:16:50;;;;;;;2.62;2.30;;;;;;;2.89;71.37;98886.52;1770141;80;21236;-63
2022/02/23 01:19:17;;;;;;;3.35;2.75;;;;;;;2.82;71.66;98883.59;1748303;80;20901;-64
2022/02/23 01:21:43;;;;;;;4.85;2.80;;;;;;;2.77;71.96;98884.48;1744112;82;20921;-64
2022/02/23 01:24:11;;;;;;;4.67;2.55;;;;;;;2.72;72.16;98887.16;1737624;80;21483;-64
2022/02/23 01:26:38;;;;;;;3.95;2.83;;;;;;;2.66;72.38;98891.66;1747699;81;21102;-63
2022/02/23 01:29:04;;;;;;;5.05;3.30;;;;;;;2.58;72.67;98891.50;1743818;81;21330;-63
2022/02/23 01:31:31;;;;;;;4.28;3.12;;;;;;;2.52;72.90;98893.34;1742744;81;21074;-63
2022/02/23 01:33:57;;;;;;;7.62;3.25;;;;;;;2.44;73.18;98894.84;1735543;80;21497;-65
2022/02/23 01:36:23;;;;;;;5.65;3.58;;;;;;;2.39;73.55;98887.85;1761159;80;20996;-63
2022/02/23 01:38:50;;;;;;;6.78;5.12;;;;;;;2.34;73.92;98888.73;1759035;80;20987;-63
2022/02/23 01:41:19;;;;;;;4.90;3.60;;;;;;;2.31;74.43;98888.16;1769509;80;21130;-64
2022/02/23 01:43:46;;;;;;;4.87;3.62;;;;;;;2.28;74.83;98885.31;1766904;80;21045;-62
2022/02/23 01:46:12;;;;;;;4.15;3.72;;;;;;;2.25;75.23;98889.52;1750756;80;21089;-64
2022/02/23 01:48:38;;;;;;;5.40;3.50;;;;;;;2.22;75.56;98891.08;1731387;80;21585;-64
2022/02/23 01:51:05;;;;;;;4.95;4.15;;;;;;;2.19;75.84;98895.28;1737675;80;21055;-63
2022/02/23 01:53:31;;;;;;;6.50;4.10;;;;;;;2.15;76.13;98887.34;1737966;81;21843;-64
2022/02/23 01:55:58;;;;;;;7.45;5.53;;;;;;;2.14;76.53;98896.16;1736769;82;21692;-64
2022/02/23 01:58:24;;;;;;;6.53;5.53;;;;;;;2.12;76.92;98892.84;1751954;81;20919;-64
2022/02/23 02:00:50;;;;;;;11.28;6.58;;;;;;;2.10;77.35;98896.56;1767475;81;20933;-63
2022/02/23 02:03:17;;;;;;;7.85;6.20;;;;;;;2.08;77.68;98901.11;1762349;80;21446;-64
2022/02/23 02:05:43;;;;;;;7.08;6.10;;;;;;;2.06;77.92;98898.60;1744381;80;21166;-64
2022/02/23 02:08:10;;;;;;;6.53;5.00;;;;;;;2.03;78.20;98901.98;1762485;80;21422;-64
2022/02/23 02:10:37;;;;;;;7.60;5.80;;;;;;;2.00;78.45;98903.08;1766138;80;20872;-64
2022/02/23 02:13:03;;;;;;;6.15;5.50;;;;;;;1.97;78.73;98903.34;1755981;80;20986;-63
2022/02/23 02:15:30;;;;;;;6.80;6.10;;;;;;;1.96;78.96;98903.45;1738371;82;20927;-63
2022/02/23 02:17:56;;;;;;;8.00;5.25;;;;;;;1.94;79.18;98904.06;1734441;82;21148;-64
2022/02/23 02:20:22;;;;;;;5.67;4.72;;;;;;;1.92;79.46;98906.84;1742670;82;21034;-64
2022/02/23 02:22:49;;;;;;;7.75;5.17;;;;;;;1.93;79.71;98907.67;1744024;82;20890;-63
2022/02/23 02:25:15;;;;;;;7.78;5.70;;;;;;;1.90;79.85;98908.77;1745800;80;20904;-63
2022/02/23 02:27:41;;;;;;;7.30;4.22;;;;;;;1.88;80.03;98898.86;1766333;80;21010;-63
2022/02/23 02:30:09;;;;;;;9.20;4.97;;;;;;;1.87;80.17;98912.95;1751415;80;21163;-63
2022/02/23 02:32:36;;;;;;;7.90;5.00;;;;;;;1.86;80.28;98908.17;1756800;80;21533;-62
2022/02/23 02:35:02;;;;;;;5.78;4.35;;;;;;;1.85;80.36;98913.06;1760641;80;20943;-64
2022/02/23 02:37:29;;;;;;;5.53;3.92;;;;;;;1.86;80.44;98911.27;1771045;80;20968;-63
2022/02/23 02:39:55;;;;;;;4.78;4.00;;;;;;;1.86;80.53;98916.52;1702846;82;21556;-64
2022/02/23 02:42:21;;;;;;;6.03;4.10;;;;;;;1.86;80.52;98915.20;1687482;84;21238;-62
2022/02/23 02:44:48;;;;;;;4.85;3.65;;;;;;;1.84;80.58;98914.52;1767460;81;21450;-63
2022/02/23 02:47:14;;;;;;;4.90;3.80;;;;;;;1.84;80.65;98914.52;1769329;81;20943;-62
2022/02/23 02:49:40;;;;;;;8.15;4.92;;;;;;;1.84;80.70;98914.52;1758358;80;20865;-63
2022/02/23 02:52:07;;;;;;;6.58;4.70;;;;;;;1.85;80.74;98909.13;1751207;80;21010;-64
2022/02/23 02:54:33;;;;;;;7.00;5.80;;;;;;;1.85;80.79;98920.13;1770307;80;21140;-64
2022/02/23 02:57:00;;;;;;;6.90;5.58;;;;;;;1.84;80.85;98921.07;1771575;80;21059;-64
2022/02/23 02:59:26;;;;;;;7.25;5.92;;;;;;;1.82;80.98;98913.34;1760748;80;20928;-64
2022/02/23 03:01:53;;;;;;;8.30;6.30;;;;;;;1.80;81.08;98911.30;1739755;80;21749;-64
2022/02/23 03:04:19;;;;;;;7.30;6.37;;;;;;;1.80;81.21;98912.63;1754573;80;20868;-64
2022/02/23 03:06:46;;;;;;;8.08;6.47;;;;;;;1.80;81.31;98911.30;1769771;80;21128;-64
2022/02/23 03:09:12;;;;;;;9.90;6.60;;;;;;;1.81;81.39;98913.45;1762269;80;20888;-67
2022/02/23 03:11:39;;;;;;;8.85;7.58;;;;;;;1.80;81.49;98913.09;1759457;80;21430;-63
2022/02/23 03:14:05;;;;;;;11.35;7.87;;;;;;;1.79;81.62;98917.53;1771674;80;20999;-64
2022/02/23 03:16:32;;;;;;;7.42;6.40;;;;;;;1.78;81.70;98911.92;1771227;80;21513;-64
2022/02/23 03:18:58;;;;;;;8.25;6.65;;;;;;;1.78;81.78;98918.95;1765072;80;21190;-64
2022/02/23 03:21:24;;;;;;;8.78;7.42;;;;;;;1.75;81.88;98921.36;1743546;82;20909;-64
2022/02/23 03:23:51;;;;;;;8.13;6.87;;;;;;;1.73;81.98;98925.91;1743883;82;20952;-64
2022/02/23 03:26:17;;;;;;;10.50;7.62;;;;;;;1.72;82.11;98923.42;1743839;82;20929;-64
2022/02/23 03:28:43;;;;;;;7.85;6.92;;;;;;;1.71;82.25;98925.69;1747796;80;21495;-64
2022/02/23 03:31:10;;;;;;;9.15;7.60;;;;;;;1.70;82.36;98925.31;1762740;80;21162;-65
2022/02/23 03:33:46;;;;;;;10.32;8.65;;;;;;;1.70;82.45;98921.38;1766599;80;20844;-63
2022/02/23 03:36:06;;;;;;;10.75;8.18;;;;;;;1.68;82.60;98928.55;1741174;80;21472;-63
2022/02/23 03:38:33;;;;;;;9.08;7.83;;;;;;;1.67;82.75;98926.41;1755115;80;21013;-63
2022/02/23 03:40:59;;;;;;;10.65;8.85;;;;;;;1.65;82.91;98927.02;1742587;80;20929;-64
2022/02/23 03:43:26;;;;;;;11.53;8.33;;;;;;;1.65;83.02;98921.78;1765932;80;21159;-64
2022/02/23 03:45:52;;;;;;;10.68;7.92;;;;;;;1.64;83.17;98925.84;1769385;80;20992;-63
2022/02/23 03:48:19;;;;;;;9.88;8.70;;;;;;;1.64;83.32;98923.23;1769383;80;21032;-63
2022/02/23 03:50:45;;;;;;;9.55;8.60;;;;;;;1.64;83.43;98923.23;1758669;80;20976;-64
2022/02/23 03:53:11;;;;;;;10.08;8.23;;;;;;;1.64;83.51;98925.34;1761381;80;20915;-63
2022/02/23 03:55:38;;;;;;;9.98;8.70;;;;;;;1.63;83.62;98925.02;1769925;80;21254;-64
2022/02/23 03:58:04;;;;;;;9.65;8.58;;;;;;;1.63;83.73;98921.55;1743129;80;20970;-64
2022/02/23 04:00:31;;;;;;;10.00;8.33;;;;;;;1.64;83.87;98924.54;1744076;80;21083;-64
2022/02/23 04:02:58;;;;;;;11.80;9.95;;;;;;;1.63;84.01;98920.23;1760049;80;21438;-64
2022/02/23 04:05:24;;;;;;;12.85;10.53;;;;;;;1.66;84.12;98922.61;1761774;80;21000;-63
2022/02/23 04:07:52;;;;;;;13.08;10.43;;;;;;;1.67;84.23;98929.50;1747515;80;22356;-66
2022/02/23 04:10:21;;;;;;;12.43;10.72;;;;;;;1.69;84.31;98923.67;1734459;80;20928;-64
2022/02/23 04:12:47;;;;;;;12.95;9.75;;;;;;;1.70;84.34;98925.31;1751881;81;20964;-64
2022/02/23 04:15:14;;;;;;;12.00;9.40;;;;;;;1.70;84.39;98930.09;1753080;80;20928;-64
2022/02/23 04:17:47;;;;;;;10.72;9.05;;;;;;;1.70;84.39;98930.09;1765518;80;20928;-64
2022/02/23 04:20:13;;;;;;;10.32;8.95;;;;;;;1.69;84.44;98921.05;1755701;80;21159;-64
2022/02/23 04:22:41;;;;;;;11.63;9.55;;;;;;;1.68;84.52;98916.28;1758423;80;21382;-64
2022/02/23 04:25:09;;;;;;;10.88;8.95;;;;;;;1.69;84.58;98919.73;1744864;81;21038;-64
2022/02/23 04:27:35;;;;;;;13.70;9.88;;;;;;;1.69;84.66;98919.27;1726999;82;20944;-65
2022/02/23 04:30:01;;;;;;;12.53;9.50;;;;;;;1.69;84.76;98915.80;1739437;82;21048;-65
2022/02/23 04:32:28;;;;;;;12.07;10.13;;;;;;;1.70;84.79;98915.66;1732930;81;21525;-63
2022/02/23 04:34:54;;;;;;;11.22;9.93;;;;;;;1.70;84.86;98922.22;1761793;81;21001;-64
2022/02/23 04:37:23;;;;;;;12.00;10.23;;;;;;;1.70;84.94;98913.52;1747916;81;21028;-63
2022/02/23 04:39:50;;;;;;;11.00;9.23;;;;;;;1.70;85.03;98918.77;1765825;80;21014;-62
2022/02/23 04:42:17;;;;;;;11.00;9.25;;;;;;;1.70;85.09;98918.77;1763730;80;20928;-63
2022/02/23 04:44:43;;;;;;;10.72;9.50;;;;;;;1.70;85.13;98922.22;1760620;80;21114;-64
2022/02/23 04:47:09;;;;;;;12.20;9.43;;;;;;;1.69;85.08;98923.20;1748967;80;20873;-63
2022/02/23 04:49:35;;;;;;;12.13;10.08;;;;;;;1.68;85.04;98923.31;1753177;80;20927;-64
2022/02/23 04:52:03;;;;;;;11.83;10.00;;;;;;;1.67;85.05;98917.70;1742267;82;21067;-63
2022/02/23 04:54:29;;;;;;;10.55;9.50;;;;;;;1.66;85.05;98918.20;1752047;80;21462;-62
2022/02/23 04:56:56;;;;;;;11.33;10.03;;;;;;;1.67;85.11;98925.56;1740676;81;21815;-62
2022/02/23 04:59:22;;;;;;;10.78;9.25;;;;;;;1.69;85.20;98922.36;1744799;81;21042;-63
2022/02/23 05:01:48;;;;;;;12.65;10.43;;;;;;;1.72;85.36;98920.80;1739324;80;21446;-63
2022/02/23 05:04:15;;;;;;;12.55;9.83;;;;;;;1.75;85.47;98924.45;1760821;80;21012;-64
2022/02/23 05:06:41;;;;;;;11.85;9.48;;;;;;;1.79;85.55;98928.50;1757112;80;21563;-63
2022/02/23 05:09:08;;;;;;;13.25;9.70;;;;;;;1.82;85.59;98928.25;1758622;80;21226;-63
2022/02/23 05:11:35;;;;;;;11.90;9.53;;;;;;;1.87;85.66;98927.37;1743454;82;20933;-63
2022/02/23 05:14:02;;;;;;;12.30;10.32;;;;;;;1.93;85.68;98925.53;1758325;80;20991;-63
2022/02/23 05:16:30;;;;;;;11.00;9.83;;;;;;;1.99;85.68;98927.64;1745066;80;21434;-64
2022/02/23 05:18:56;;;;;;;13.30;10.35;;;;;;;2.06;85.65;98935.34;1744974;80;21007;-63
2022/02/23 05:21:23;;;;;;;12.20;9.68;;;;;;;2.16;85.61;98941.50;1763094;80;23224;-64
2022/02/23 05:23:49;;;;;;;11.33;10.00;;;;;;;2.24;85.49;98936.91;1755083;80;20943;-64
2022/02/23 05:26:15;;;;;;;12.90;9.78;;;;;;;2.33;85.35;98938.25;1758321;80;20971;-63
2022/02/23 05:28:42;;;;;;;12.07;9.90;;;;;;;2.41;85.16;98942.84;1754604;80;21006;-62
2022/02/23 05:31:08;;;;;;;12.55;9.55;;;;;;;2.47;84.96;98936.59;1754375;80;20938;-63
2022/02/23 05:33:35;;;;;;;11.18;9.33;;;;;;;2.52;84.66;98934.03;1753952;80;21053;-63
2022/02/23 05:36:01;;;;;;;11.48;10.08;;;;;;;2.54;84.41;98938.19;1755296;80;21022;-63
2022/02/23 05:38:28;;;;;;;11.57;10.15;;;;;;;2.57;84.23;98936.62;1758340;80;20948;-64
2022/02/23 05:40:55;;;;;;;10.50;9.38;;;;;;;2.62;84.01;98938.83;1764276;80;20933;-64
2022/02/23 05:43:22;;;;;;;11.90;9.65;;;;;;;2.62;83.80;98944.09;1758998;80;21072;-63
2022/02/23 05:45:48;;;;;;;10.95;9.18;;;;;;;2.63;83.70;98943.97;1750503;80;21818;-61
2022/02/23 05:48:16;;;;;;;10.72;9.35;;;;;;;2.65;83.58;98938.57;1753830;80;21073;-63
2022/02/23 05:50:43;;;;;;;10.23;9.03;;;;;;;2.67;83.58;98940.58;1760748;80;20979;-63
2022/02/23 05:53:09;;;;;;;10.58;9.30;;;;;;;2.70;83.57;98945.09;1761850;80;21228;-64
2022/02/23 05:55:35;;;;;;;10.10;8.90;;;;;;;2.73;83.53;98950.56;1753550;80;20935;-64
2022/02/23 05:58:02;;;;;;;11.45;8.85;;;;;;;2.78;83.55;98945.73;1762451;80;21151;-60
2022/02/23 06:00:28;;;;;;;13.05;10.10;;;;;;;2.81;83.47;98951.56;1768599;80;20986;-60
2022/02/23 06:02:55;;;;;;;11.43;9.00;;;;;;;2.85;83.37;98957.36;1765384;80;21521;-62
2022/02/23 06:05:21;;;;;;;9.98;8.85;;;;;;;2.86;83.32;98959.03;1752941;80;20938;-62
2022/02/23 06:07:48;;;;;;;12.33;9.63;;;;;;;2.88;83.29;98949.21;1764190;80;21454;-66
2022/02/23 06:10:14;;;;;;;10.05;8.90;;;;;;;2.91;83.27;98954.20;1760347;80;21791;-66
2022/02/23 06:12:41;;;;;;;9.55;8.35;;;;;;;2.92;83.31;98951.94;1753055;80;20911;-63
2022/02/23 06:15:09;;;;;;;10.78;8.75;;;;;;;2.97;83.35;98951.05;1758841;80;20888;-64
2022/02/23 06:17:36;;;;;;;16.35;12.30;;;;;;;2.97;83.33;98946.59;1756971;80;21061;-67
2022/02/23 06:20:03;;;;;;;13.45;9.70;;;;;;;3.02;83.43;98948.84;1750518;80;21512;-63
2022/02/23 06:22:30;;;;;;;11.03;9.33;;;;;;;3.10;83.96;98947.17;1755876;80;21105;-64
2022/02/23 06:24:56;;;;;;;10.23;9.20;;;;;;;3.18;83.88;98948.31;1770640;80;21552;-64
2022/02/23 06:27:23;;;;;;;10.60;9.15;;;;;;;3.22;83.75;98951.84;1769991;80;21306;-67
2022/02/23 06:29:49;;;;;;;13.25;9.58;;;;;;;3.24;83.56;98946.43;1746170;80;20978;-64
2022/02/23 06:32:15;;;;;;;11.10;9.23;;;;;;;3.27;83.40;98947.00;1752358;80;20974;-65
2022/02/23 06:34:42;;;;;;;11.40;8.88;;;;;;;3.29;83.24;98959.52;1767860;80;21229;-67
2022/02/23 06:37:08;;;;;;;13.35;10.13;;;;;;;3.33;83.20;98957.45;1771175;80;21486;-64
2022/02/23 06:39:40;;;;;;;14.10;10.05;;;;;;;3.36;83.48;98954.08;1769761;80;20933;-65
2022/02/23 06:42:07;;;;;;;13.10;10.18;;;;;;;3.40;83.31;98957.24;1771771;80;21418;-64
2022/02/23 06:44:34;;;;;;;11.85;9.38;;;;;;;3.43;83.10;98959.13;1766923;80;20990;-65
2022/02/23 06:47:02;;;;;;;12.13;9.98;;;;;;;3.46;83.01;98967.22;1755273;80;21147;-66
2022/02/23 06:49:30;;;;;;;11.85;9.43;;;;;;;3.49;82.91;98970.41;1770247;80;20936;-66
2022/02/23 06:51:58;;;;;;;13.40;9.45;;;;;;;3.54;82.73;98976.09;1772536;80;21485;-65
2022/02/23 06:54:26;;;;;;;11.93;10.03;;;;;;;3.62;82.50;98978.83;1768951;80;20954;-67
2022/02/23 06:56:52;;;;;;;12.33;9.48;;;;;;;3.66;82.35;98978.08;1752005;80;21068;-65
2022/02/23 06:59:19;;;;;;;15.38;9.70;;;;;;;3.70;82.29;98984.74;1770048;80;21139;-65
2022/02/23 07:01:45;;;;;;;12.10;9.00;;;;;;;3.76;82.11;98989.42;1768446;80;20927;-65
2022/02/23 07:04:11;;;;;;;15.43;11.08;;;;;;;3.81;81.83;98987.72;1771217;80;21127;-66
2022/02/23 07:06:41;;;;;;;11.73;9.60;;;;;;;3.89;81.74;98986.02;1769490;80;20986;-65
2022/02/23 07:09:08;;;;;;;11.50;8.90;;;;;;;3.99;81.55;98983.41;1755682;80;21104;-66
2022/02/23 07:11:37;;;;;;;13.35;9.30;;;;;;;4.08;81.21;98982.54;1769916;80;21018;-64
2022/02/23 07:14:03;;;;;;;13.62;9.50;;;;;;;4.21;80.84;98975.17;1761650;80;20996;-64
2022/02/23 07:16:30;;;;;;;10.05;8.90;;;;;;;4.45;80.75;98973.38;1759794;80;20895;-65
2022/02/23 07:18:56;;;;;;;18.42;9.43;;;;;;;4.90;80.49;98982.21;1759514;80;21037;-65
2022/02/23 07:21:23;;;;;;;13.43;9.05;;;;;;;5.42;79.35;98985.92;1702515;84;21081;-65
2022/02/23 07:23:51;;;;;;;11.93;9.20;;;;;;;5.96;77.96;98981.83;1767831;80;21149;-64
2022/02/23 07:26:17;;;;;;;12.73;9.03;;;;;;;6.51;76.04;98972.28;1765630;80;21101;-66
2022/02/23 07:28:47;;;;;;;11.90;9.53;;;;;;;7.09;74.34;98965.25;1759340;80;20892;-65
2022/02/23 07:31:17;;;;;;;13.80;9.23;;;;;;;7.52;71.84;98967.34;1750919;80;21438;-65
2022/02/23 07:33:44;;;;;;;13.68;9.28;;;;;;;7.78;69.74;98969.36;1771042;80;20939;-63
2022/02/23 07:36:11;;;;;;;13.40;8.13;;;;;;;7.89;68.30;98975.67;1771317;80;22169;-64
2022/02/23 07:38:38;;;;;;;16.77;8.78;;;;;;;7.98;67.16;98972.01;1761988;80;21043;-66
2022/02/23 07:41:08;;;;;;;17.60;9.63;;;;;;;7.97;65.99;98979.16;1771369;80;21469;-64
2022/02/23 07:43:36;;;;;;;14.50;9.20;;;;;;;7.88;65.36;98981.94;1768771;80;20991;-66
2022/02/23 07:46:05;;;;;;;15.88;10.45;;;;;;;7.67;64.44;98985.56;1761549;80;21143;-65
2022/02/23 07:48:32;;;;;;;16.48;10.32;;;;;;;7.35;64.38;98988.48;1769694;80;21122;-65
2022/02/23 07:50:59;;;;;;;11.53;8.80;;;;;;;7.07;64.58;98993.69;1765387;80;21532;-65
2022/02/23 07:53:25;;;;;;;16.82;9.13;;;;;;;6.81;64.82;98980.53;1769117;80;20978;-65
2022/02/23 07:55:52;;;;;;;13.10;8.80;;;;;;;6.54;65.21;98981.23;1765195;80;20988;-65
2022/02/23 07:58:19;;;;;;;13.32;9.98;;;;;;;6.37;65.83;98980.28;1756579;80;20915;-62
2022/02/23 08:00:46;;;;;;;11.22;8.18;;;;;;;6.24;66.21;98977.23;1743674;80;21160;-63
2022/02/23 08:03:14;;;;;;;12.90;8.20;;;;;;;6.09;66.52;98978.30;1746443;80;20967;-64
2022/02/23 08:05:42;;;;;;;14.07;8.85;;;;;;;5.89;66.97;98983.91;1758076;80;21830;-63
2022/02/23 08:08:09;;;;;;;11.68;8.50;;;;;;;5.81;67.59;98975.41;1760556;80;20963;-61
2022/02/23 08:10:37;;;;;;;12.35;8.00;;;;;;;5.80;67.83;98971.58;1757932;80;21090;-62
2022/02/23 08:13:07;;;;;;;12.53;8.20;;;;;;;5.74;67.66;98970.86;1745388;80;21156;-64
2022/02/23 08:21:03;;;;;;;12.68;8.08;;;;;;;5.92;67.96;98967.25;1740903;81;20987;-65
2022/02/23 08:23:32;;;;;;;12.85;8.28;;;;;;;6.26;67.38;98963.89;1749048;81;21106;-64
2022/02/23 08:25:58;;;;;;;10.35;7.58;;;;;;;6.75;67.11;98956.55;1756232;81;21213;-63
2022/02/23 08:28:25;;;;;;;11.65;7.47;;;;;;;7.30;65.97;98951.62;1755411;81;20908;-64
2022/02/23 08:30:51;;;;;;;15.85;8.03;;;;;;;7.86;64.55;98949.51;1733443;81;21098;-63
2022/02/23 08:33:18;;;;;;;15.28;8.33;;;;;;;8.36;63.02;98936.91;1732378;81;21037;-64
2022/02/23 08:35:46;;;;;;;12.90;7.70;;;;;;;8.86;61.05;98930.45;1733278;82;21527;-64
2022/02/23 08:38:14;;;;;;;12.60;7.20;;;;;;;9.27;59.72;98930.06;1757534;81;21585;-65
2022/02/23 08:40:42;;;;;;;12.13;7.75;;;;;;;9.62;58.51;98927.84;1758972;81;21041;-64
2022/02/23 08:43:10;;;;;;;11.65;7.03;;;;;;;9.86;57.02;98922.31;1757406;81;21497;-64
2022/02/23 08:45:37;;;;;;;9.18;6.90;;;;;;;9.90;55.86;98915.16;1753256;81;20945;-66
2022/02/23 08:48:05;;;;;;;12.93;7.22;;;;;;;9.75;54.97;98918.25;1738695;81;21497;-61
2022/02/23 08:50:32;;;;;;;15.93;7.58;;;;;;;9.58;55.05;98925.20;1735370;81;21212;-62
2022/02/23 08:52:58;;;;;;;10.35;6.62;;;;;;;9.51;55.15;98922.44;1753259;81;21453;-62
2022/02/23 08:55:25;;;;;;;10.78;6.78;;;;;;;9.47;55.09;98915.81;1751886;81;20964;-64
2022/02/23 08:57:52;;;;;;;10.50;6.95;;;;;;;9.56;55.13;98913.44;1757136;81;21411;-64
2022/02/23 09:00:20;;;;;;;11.75;6.70;;;;;;;9.59;54.62;98918.41;1757879;81;20992;-65
2022/02/23 09:02:46;;;;;;;9.78;6.15;;;;;;;9.53;54.50;98913.79;1740392;81;21148;-63
2022/02/23 09:05:13;;;;;;;9.50;5.65;;;;;;;9.53;54.42;98918.27;1758419;81;21469;-63
2022/02/23 09:07:41;;;;;;;10.63;5.75;;;;;;;9.40;53.77;98924.67;1746935;81;21042;-62
2022/02/23 09:10:09;;;;;;;9.93;5.42;;;;;;;9.19;53.67;98926.63;1758717;81;21040;-62
2022/02/23 09:12:35;;;;;;;10.68;5.28;;;;;;;9.07;53.78;98926.70;1757121;81;21014;-63
2022/02/23 09:15:02;;;;;;;9.25;5.35;;;;;;;9.05;53.92;98921.55;1763409;81;21285;-64
2022/02/23 09:17:29;;;;;;;12.00;5.92;;;;;;;8.95;53.97;98923.59;1761410;81;21493;-64
2022/02/23 09:19:57;;;;;;;11.65;6.17;;;;;;;8.82;54.29;98923.81;1754479;81;20984;-64
2022/02/23 09:22:24;;;;;;;9.55;6.05;;;;;;;8.80;54.45;98924.00;1760537;80;21552;-63
2022/02/23 09:24:53;;;;;;;10.18;6.10;;;;;;;8.85;54.38;98915.52;1715874;83;21367;-64
2022/02/23 09:27:19;;;;;;;11.18;5.62;;;;;;;8.84;54.63;98922.64;1762973;81;21161;-64
2022/02/23 09:29:45;;;;;;;11.05;5.30;;;;;;;8.93;54.28;98918.13;1740277;81;20891;-63
2022/02/23 09:32:12;;;;;;;13.55;6.05;;;;;;;9.01;53.77;98914.12;1763247;80;21030;-64
2022/02/23 09:34:38;;;;;;;9.85;4.83;;;;;;;9.13;53.20;98918.02;1762936;81;21041;-63
2022/02/23 09:37:07;;;;;;;13.32;5.75;;;;;;;9.07;52.95;98912.91;1766133;81;20923;-63
2022/02/23 09:39:34;;;;;;;9.03;5.10;;;;;;;8.97;52.56;98911.50;1763671;80;21189;-65
2022/02/23 09:42:01;;;;;;;9.03;5.03;;;;;;;8.80;52.79;98909.91;1749253;81;20896;-65
2022/02/23 09:44:27;;;;;;;11.85;5.00;;;;;;;8.59;52.96;98911.32;1735089;81;21482;-63
2022/02/23 09:46:54;;;;;;;12.37;5.35;;;;;;;8.39;53.40;98907.42;1732928;82;21086;-62
2022/02/23 09:49:21;;;;;;;11.00;5.97;;;;;;;8.33;53.82;98909.41;1741523;81;21429;-63
2022/02/23 09:51:47;;;;;;;12.65;5.92;;;;;;;8.29;54.11;98907.28;1746397;81;21201;-63
2022/02/23 09:54:14;;;;;;;12.70;5.10;;;;;;;8.24;54.27;98910.91;1762797;81;20975;-64
2022/02/23 09:56:40;;;;;;;11.05;5.72;;;;;;;8.22;54.43;98911.05;1753814;81;21572;-63
2022/02/23 09:59:07;;;;;;;10.40;6.17;;;;;;;8.21;54.53;98904.61;1733886;81;21099;-64
2022/02/23 10:01:34;;;;;;;9.28;5.17;;;;;;;8.17;54.30;98905.44;1731536;80;21014;-65
2022/02/23 10:04:01;;;;;;;13.15;6.03;;;;;;;8.03;54.56;98904.78;1752298;81;22773;-63
2022/02/23 10:06:30;;;;;;;10.80;5.78;;;;;;;7.91;54.94;98909.62;1753427;81;20940;-64
2022/02/23 10:09:05;;;;;;;9.18;5.95;;;;;;;7.81;55.07;98906.81;1751918;81;20979;-63
2022/02/23 10:11:31;;;;;;;9.88;6.08;;;;;;;7.71;55.47;98904.34;1762131;81;20927;-64
2022/02/23 10:13:58;;;;;;;14.45;6.35;;;;;;;7.63;55.84;98900.86;1755678;81;21447;-63
2022/02/23 10:16:38;;;;;;;11.63;6.33;;;;;;;7.57;56.26;98901.02;1753334;80;21144;-64
2022/02/23 10:19:21;;;;;;;9.53;5.90;;;;;;;7.56;56.62;98906.49;1764578;80;20991;-62
2022/02/23 10:21:51;;;;;;;12.25;6.95;;;;;;;7.54;56.86;98908.45;1759359;80;21536;-63
2022/02/23 10:24:32;;;;;;;9.88;6.12;;;;;;;7.47;57.21;98913.59;1760941;81;21145;-64
2022/02/23 10:27:04;;;;;;;17.48;6.58;;;;;;;7.48;57.36;98907.80;1753017;80;21547;-64
2022/02/23 10:29:54;;;;;;;14.90;7.03;;;;;;;7.38;57.67;98911.42;1757041;80;21143;-64
2022/02/23 10:32:23;;;;;;;12.45;6.47;;;;;;;7.49;57.95;98910.27;1744631;81;20984;-63
2022/02/23 10:34:51;;;;;;;10.95;5.53;;;;;;;7.54;57.84;98895.22;1756865;80;20939;-63
2022/02/23 10:37:22;;;;;;;9.03;4.72;;;;;;;7.57;57.31;98900.19;1744161;80;21491;-63
2022/02/23 10:39:54;;;;;;;10.55;5.58;;;;;;;7.56;56.73;98905.16;1756711;81;21592;-64
2022/02/23 10:42:26;;;;;;;13.25;4.50;;;;;;;7.43;56.35;98900.34;1764121;81;21226;-63
2022/02/23 10:44:54;;;;;;;11.10;4.08;;;;;;;7.31;56.63;98901.17;1767049;81;21081;-64
2022/02/23 10:47:29;;;;;;;8.03;4.20;;;;;;;7.22;56.72;98907.95;1760545;81;20982;-63
2022/02/23 10:50:03;;;;;;;11.37;4.63;;;;;;;7.16;57.12;98911.23;1739695;80;21008;-62
2022/02/23 10:52:43;;;;;;;10.82;5.17;;;;;;;7.13;57.34;98905.77;1739267;81;20913;-64
2022/02/23 10:55:34;;;;;;;10.75;4.20;;;;;;;7.11;59.93;98905.59;1736517;81;21160;-65
2022/02/23 10:58:05;;;;;;;10.90;5.03;;;;;;;7.04;57.77;98917.30;1740769;81;21432;-63
2022/02/23 11:00:35;;;;;;;7.58;3.90;;;;;;;6.96;58.03;98909.34;1739914;81;20933;-63
2022/02/23 11:03:02;;;;;;;11.80;4.87;;;;;;;6.93;58.48;98915.47;1747099;81;21012;-62
2022/02/23 11:05:31;;;;;;;13.75;6.17;;;;;;;6.87;59.03;98920.91;1761324;81;21452;-63
2022/02/23 11:08:01;;;;;;;12.35;5.80;;;;;;;6.75;59.79;98918.22;1742289;81;21548;-63
2022/02/23 11:10:27;;;;;;;13.25;5.58;;;;;;;6.59;60.89;98924.76;1740366;81;21055;-62
2022/02/23 11:12:56;;;;;;;8.85;4.58;;;;;;;6.39;61.86;98923.34;1753634;81;21115;-64
2022/02/23 11:15:24;;;;;;;9.05;5.03;;;;;;;6.26;62.87;98918.46;1747760;81;21063;-64
2022/02/23 11:17:53;;;;;;;7.90;3.90;;;;;;;6.12;63.88;98919.89;1766363;80;21419;-64
2022/02/23 11:20:29;;;;;;;8.00;3.65;;;;;;;6.02;64.53;98913.86;1754449;80;21146;-65
2022/02/23 11:22:59;;;;;;;7.37;3.40;;;;;;;5.98;64.94;98923.08;1757026;81;20985;-66
2022/02/23 11:25:28;;;;;;;8.53;3.90;;;;;;;5.93;65.51;98913.48;1747183;80;20984;-63
2022/02/23 11:28:00;;;;;;;7.30;4.33;;;;;;;5.94;66.70;98904.59;1738218;82;21562;-65
2022/02/23 11:30:28;;;;;;;11.63;4.87;;;;;;;5.97;67.33;98908.21;1743278;80;20959;-62
2022/02/23 11:32:55;;;;;;;7.75;4.22;;;;;;;6.00;67.41;98907.91;1766361;80;21077;-63
2022/02/23 11:35:48;;;;;;;8.15;4.62;;;;;;;6.02;67.52;98906.45;1756387;81;21501;-67
2022/02/23 11:38:18;;;;;;;6.97;3.83;;;;;;;6.04;67.90;98897.39;1739599;82;21068;-64
2022/02/23 11:40:56;;;;;;;7.67;3.62;;;;;;;6.05;67.83;98904.31;1738452;82;21060;-63
2022/02/23 11:43:29;;;;;;;6.78;3.65;;;;;;;6.04;67.88;98892.59;1741748;80;20995;-64